Time;durP1;ratioP1;P1;durP2;ratioP2;P2;SDS_P1;SDS_P2;PMS_P1;PMS_P2;Temp;Humidity;BMP_temperature;BMP_pressure;BME280_temperature;BME280_humidity;BME280_pressure;Samples;Min_cycle;Max_cycle;Signal;HPM_P1;HPM_P2
2023/04/18 00:02:04;;;;;;;6.32;3.25;;;21.30;55.80;;;;;;4992581;28;20205;-58
2023/04/18 00:04:34;;;;;;;5.78;3.03;;;21.40;55.80;;;;;;4992590;28;20219;-57
2023/04/18 00:07:05;;;;;;;5.30;2.70;;;21.40;55.70;;;;;;4993037;28;20193;-57
2023/04/18 00:09:36;;;;;;;4.90;2.83;;;21.40;55.70;;;;;;4991863;28;20205;-55
2023/04/18 00:12:06;;;;;;;6.55;2.85;;;21.50;55.70;;;;;;4992783;28;20610;-58
2023/04/18 00:14:38;;;;;;;5.40;2.78;;;21.50;55.70;;;;;;4991600;28;20225;-58
2023/04/18 00:17:12;;;;;;;4.63;2.30;;;21.50;55.70;;;;;;4990855;28;20233;-58
2023/04/18 00:19:42;;;;;;;6.15;2.60;;;21.50;55.70;;;;;;4986730;28;20190;-58
2023/04/18 00:22:15;;;;;;;5.28;2.55;;;21.50;55.70;;;;;;4992356;28;20248;-57
2023/04/18 00:24:45;;;;;;;4.32;2.58;;;21.60;55.80;;;;;;4992271;28;20685;-56
2023/04/18 00:27:16;;;;;;;3.95;2.22;;;21.60;55.70;;;;;;4992809;28;20198;-58
2023/04/18 00:29:47;;;;;;;3.88;2.17;;;21.60;55.70;;;;;;4992550;28;20204;-57
2023/04/18 00:32:19;;;;;;;4.78;2.33;;;21.60;55.70;;;;;;4992397;28;20228;-58
2023/04/18 00:34:50;;;;;;;3.90;2.13;;;21.70;55.70;;;;;;4992091;28;20232;-58
2023/04/18 00:37:21;;;;;;;4.43;2.03;;;21.70;55.70;;;;;;4992364;28;20204;-58
2023/04/18 00:39:52;;;;;;;3.30;1.85;;;21.70;55.70;;;;;;4988444;28;20201;-58
2023/04/18 00:42:24;;;;;;;3.55;1.80;;;21.70;55.90;;;;;;4992034;28;20256;-57
2023/04/18 00:44:54;;;;;;;4.25;1.80;;;21.80;56.00;;;;;;4991412;28;20217;-57
2023/04/18 00:47:27;;;;;;;3.97;1.42;;;21.80;55.80;;;;;;4991390;28;20197;-58
2023/04/18 00:49:58;;;;;;;2.90;1.55;;;21.80;55.70;;;;;;4984757;28;20195;-57
2023/04/18 00:52:29;;;;;;;2.97;1.60;;;21.90;55.80;;;;;;4971767;28;20202;-57
2023/04/18 00:55:00;;;;;;;2.88;1.30;;;21.90;55.70;;;;;;4987463;28;20705;-58
2023/04/18 00:57:30;;;;;;;3.85;1.33;;;21.90;55.60;;;;;;4991189;28;20244;-58
2023/04/18 01:00:07;;;;;;;2.38;1.45;;;21.90;55.60;;;;;;4991430;28;20197;-57
2023/04/18 01:02:40;;;;;;;2.45;1.40;;;22.00;55.60;;;;;;4990916;28;20288;-57
2023/04/18 01:05:11;;;;;;;3.13;1.50;;;22.00;55.60;;;;;;4991156;28;20697;-58
2023/04/18 01:07:42;;;;;;;3.10;1.20;;;22.00;55.50;;;;;;4991207;28;20198;-58
2023/04/18 01:10:13;;;;;;;2.83;1.55;;;22.00;55.40;;;;;;4990641;28;20205;-58
2023/04/18 01:12:44;;;;;;;1.25;1.00;;;22.00;55.90;;;;;;4991258;28;20609;-58
2023/04/18 01:15:15;;;;;;;2.70;1.13;;;22.10;55.40;;;;;;4992409;28;20597;-58
2023/04/18 01:17:47;;;;;;;2.47;1.25;;;22.10;55.40;;;;;;5010867;28;20692;-58
2023/04/18 01:20:18;;;;;;;3.08;0.90;;;22.10;55.30;;;;;;4997695;28;20669;-58
2023/04/18 01:22:48;;;;;;;1.83;0.90;;;22.10;55.30;;;;;;4991215;28;20204;-58
2023/04/18 01:25:21;;;;;;;3.13;1.17;;;22.10;55.30;;;;;;4991321;28;20197;-57
2023/04/18 01:27:52;;;;;;;2.65;1.23;;;22.20;55.30;;;;;;4990714;28;20601;-58
2023/04/18 01:30:23;;;;;;;1.33;0.95;;;22.20;55.20;;;;;;4991080;28;20216;-58
2023/04/18 01:32:54;;;;;;;1.52;1.00;;;22.20;55.30;;;;;;4990990;28;20217;-58
2023/04/18 01:35:24;;;;;;;1.20;0.65;;;22.20;55.20;;;;;;4990978;28;20225;-57
2023/04/18 01:37:55;;;;;;;2.10;0.98;;;22.30;55.20;;;;;;4990901;28;20193;-58
2023/04/18 01:40:28;;;;;;;1.52;0.75;;;22.30;55.20;;;;;;4990893;28;20197;-56
2023/04/18 01:42:59;;;;;;;2.22;0.90;;;22.30;55.20;;;;;;4990741;28;20221;-58
2023/04/18 01:45:30;;;;;;;1.10;0.80;;;22.40;55.20;;;;;;4995606;28;20204;-58
2023/04/18 01:48:00;;;;;;;1.70;0.93;;;22.40;55.10;;;;;;5010866;28;20200;-57
2023/04/18 01:50:31;;;;;;;1.60;1.00;;;22.40;55.10;;;;;;4998279;28;20557;-57
2023/04/18 01:53:01;;;;;;;1.08;0.77;;;22.40;55.00;;;;;;4991233;28;20225;-57
2023/04/18 01:55:34;;;;;;;2.30;0.93;;;22.40;55.10;;;;;;4990496;28;20248;-57
2023/04/18 01:58:04;;;;;;;1.23;0.68;;;22.50;55.00;;;;;;4990687;28;20201;-57
2023/04/18 02:00:35;;;;;;;1.48;0.80;;;22.50;55.00;;;;;;4990440;28;20198;-56
2023/04/18 02:03:06;;;;;;;1.10;0.65;;;22.50;55.00;;;;;;4991332;28;20694;-56
2023/04/18 02:05:38;;;;;;;2.67;0.88;;;22.50;55.00;;;;;;4994995;28;20272;-57
2023/04/18 02:08:10;;;;;;;1.70;0.95;;;22.50;54.90;;;;;;4995060;28;20225;-58
2023/04/18 02:10:43;;;;;;;0.88;0.40;;;22.60;54.90;;;;;;4994973;28;20197;-56
2023/04/18 02:13:13;;;;;;;1.13;0.60;;;22.60;54.90;;;;;;4995268;28;20225;-55
2023/04/18 02:15:45;;;;;;;1.15;0.60;;;22.60;54.90;;;;;;5001320;28;20275;-57
2023/04/18 02:18:16;;;;;;;1.23;0.60;;;22.60;55.00;;;;;;4982408;28;20274;-58
2023/04/18 02:20:47;;;;;;;1.20;0.65;;;22.60;54.90;;;;;;4975559;28;20198;-57
2023/04/18 02:23:18;;;;;;;2.00;0.70;;;22.60;54.90;;;;;;4975366;28;20224;-57
2023/04/18 02:25:50;;;;;;;2.15;0.60;;;22.70;54.90;;;;;;4975801;28;20542;-56
2023/04/18 02:28:21;;;;;;;1.02;0.70;;;22.70;54.80;;;;;;4975473;28;20264;-58
2023/04/18 02:30:51;;;;;;;1.63;0.60;;;22.70;54.80;;;;;;4985184;28;20654;-58
2023/04/18 02:33:22;;;;;;;1.67;0.93;;;22.70;54.70;;;;;;4994092;28;20218;-57
2023/04/18 02:35:52;;;;;;;1.95;0.95;;;22.70;54.70;;;;;;4993550;28;20221;-58
2023/04/18 02:38:23;;;;;;;1.10;0.60;;;22.80;54.80;;;;;;4994349;28;20201;-58
2023/04/18 02:40:55;;;;;;;1.40;0.80;;;22.80;54.80;;;;;;4993883;28;20201;-57
2023/04/18 02:43:26;;;;;;;1.20;0.60;;;22.80;54.70;;;;;;4993686;28;20284;-58
2023/04/18 02:45:56;;;;;;;1.67;0.60;;;22.80;54.70;;;;;;5001396;28;20661;-58
2023/04/18 02:48:27;;;;;;;1.15;0.55;;;22.80;54.70;;;;;;5006669;28;20874;-57
2023/04/18 02:51:04;;;;;;;0.93;0.57;;;22.90;54.70;;;;;;4993717;28;20713;-58
2023/04/18 02:53:35;;;;;;;1.08;0.60;;;22.90;54.70;;;;;;4993892;28;20654;-59
2023/04/18 02:56:08;;;;;;;2.03;0.70;;;22.90;54.70;;;;;;4991787;28;20276;-59
2023/04/18 02:58:38;;;;;;;0.50;0.40;;;22.90;54.70;;;;;;4993877;28;20206;-58
2023/04/18 03:01:09;;;;;;;1.42;0.60;;;22.90;54.70;;;;;;4993169;28;20193;-59
2023/04/18 03:03:40;;;;;;;0.57;0.45;;;22.90;54.60;;;;;;4993725;28;20268;-58
2023/04/18 03:06:10;;;;;;;0.50;0.40;;;22.90;54.60;;;;;;4993844;28;20263;-59
2023/04/18 03:08:41;;;;;;;1.42;0.57;;;22.90;54.60;;;;;;4993614;28;20329;-59
2023/04/18 03:11:14;;;;;;;0.90;0.45;;;22.90;54.50;;;;;;4993939;28;20198;-58
2023/04/18 03:13:45;;;;;;;1.08;0.50;;;23.00;54.50;;;;;;4992854;28;20217;-59
2023/04/18 03:16:15;;;;;;;0.80;0.60;;;23.00;54.40;;;;;;5003161;28;20615;-59
2023/04/18 03:18:46;;;;;;;0.50;0.50;;;23.00;54.40;;;;;;5012119;28;20202;-59
2023/04/18 03:21:16;;;;;;;1.13;0.52;;;23.00;54.30;;;;;;4997466;28;20719;-59
2023/04/18 03:23:47;;;;;;;0.40;0.32;;;23.00;54.30;;;;;;4992440;28;20699;-58
2023/04/18 03:26:20;;;;;;;1.27;0.50;;;23.00;54.20;;;;;;4993506;28;20197;-59
2023/04/18 03:28:50;;;;;;;0.93;0.50;;;23.00;54.20;;;;;;4993488;28;20189;-59
2023/04/18 03:31:21;;;;;;;0.80;0.60;;;23.00;54.20;;;;;;4992419;28;20201;-58
2023/04/18 03:33:52;;;;;;;0.80;0.40;;;23.00;54.20;;;;;;4993257;28;20217;-58
2023/04/18 03:36:24;;;;;;;0.73;0.50;;;23.00;54.30;;;;;;4993164;28;20620;-58
2023/04/18 03:38:55;;;;;;;0.75;0.50;;;23.00;54.30;;;;;;4992290;28;20665;-60
2023/04/18 03:41:28;;;;;;;0.50;0.40;;;23.00;54.30;;;;;;4993075;28;20189;-59
2023/04/18 03:43:58;;;;;;;0.60;0.60;;;23.00;54.40;;;;;;4992966;28;20693;-59
2023/04/18 03:46:29;;;;;;;1.38;0.60;;;23.00;54.40;;;;;;5004944;28;20197;-56
2023/04/18 03:48:59;;;;;;;0.80;0.60;;;23.00;54.40;;;;;;5012351;28;20196;-59
2023/04/18 03:51:34;;;;;;;1.88;0.60;;;23.10;53.90;;;;;;4996430;28;20609;-59
2023/04/18 03:54:04;;;;;;;0.63;0.47;;;23.10;53.80;;;;;;4992604;28;20788;-59
2023/04/18 03:56:37;;;;;;;1.52;0.70;;;23.00;53.80;;;;;;4992993;28;20606;-60
2023/04/18 03:59:07;;;;;;;1.08;0.60;;;23.10;53.80;;;;;;4992466;28;20194;-59
2023/04/18 04:01:38;;;;;;;0.88;0.45;;;23.10;53.80;;;;;;4991758;28;20673;-59
2023/04/18 04:04:10;;;;;;;1.23;0.60;;;23.10;53.80;;;;;;4992235;28;20224;-59
2023/04/18 04:06:41;;;;;;;0.82;0.50;;;23.10;53.70;;;;;;4992265;28;20256;-59
2023/04/18 04:09:11;;;;;;;1.27;0.40;;;23.10;53.80;;;;;;4991602;28;20208;-59
2023/04/18 04:11:44;;;;;;;1.60;0.65;;;23.10;53.90;;;;;;4986195;28;20194;-59
2023/04/18 04:14:15;;;;;;;0.85;0.60;;;23.10;53.90;;;;;;4973115;28;20250;-59
2023/04/18 04:16:46;;;;;;;0.60;0.40;;;23.10;54.00;;;;;;5003798;28;20653;-59
2023/04/18 04:19:16;;;;;;;0.68;0.40;;;23.10;54.00;;;;;;5011542;28;20201;-58
2023/04/18 04:21:47;;;;;;;1.58;0.50;;;23.10;54.00;;;;;;4995747;28;20244;-58
2023/04/18 04:24:17;;;;;;;0.85;0.50;;;23.10;54.10;;;;;;4992306;28;20213;-58
2023/04/18 04:26:50;;;;;;;1.05;0.60;;;23.10;54.10;;;;;;4991737;28;20201;-57
2023/04/18 04:29:22;;;;;;;1.95;0.50;;;23.10;54.00;;;;;;4992574;28;20201;-58
2023/04/18 04:31:53;;;;;;;1.48;0.40;;;23.10;54.00;;;;;;4992252;28;20200;-58
2023/04/18 04:34:23;;;;;;;0.40;0.40;;;23.10;54.10;;;;;;4992322;28;20213;-58
2023/04/18 04:36:54;;;;;;;0.65;0.32;;;23.10;54.10;;;;;;4991752;28;20189;-59
2023/04/18 04:39:25;;;;;;;0.50;0.30;;;23.10;54.10;;;;;;4992141;28;20301;-59
2023/04/18 04:42:00;;;;;;;0.63;0.50;;;23.10;54.10;;;;;;4991596;28;20201;-59
2023/04/18 04:44:30;;;;;;;0.60;0.50;;;23.10;54.20;;;;;;4992274;28;20264;-59
2023/04/18 04:47:01;;;;;;;0.65;0.43;;;23.10;54.20;;;;;;4992137;28;20205;-59
2023/04/18 04:49:32;;;;;;;0.70;0.50;;;23.10;54.20;;;;;;4991613;28;20197;-58
2023/04/18 04:52:02;;;;;;;0.30;0.30;;;23.10;54.20;;;;;;4992328;28;20236;-59
2023/04/18 04:54:33;;;;;;;0.57;0.35;;;23.10;54.20;;;;;;4991208;28;20704;-56
2023/04/18 04:57:06;;;;;;;1.20;0.40;;;23.10;54.10;;;;;;4991560;28;20216;-57
2023/04/18 04:59:36;;;;;;;0.50;0.45;;;23.10;54.10;;;;;;4990879;28;20575;-58
2023/04/18 05:02:07;;;;;;;1.48;0.40;;;23.10;54.10;;;;;;4992033;28;20205;-58
2023/04/18 05:04:37;;;;;;;0.50;0.40;;;23.10;54.10;;;;;;4981593;28;20210;-58
2023/04/18 05:07:08;;;;;;;0.60;0.40;;;23.10;54.10;;;;;;4973043;28;20252;-58
2023/04/18 05:09:39;;;;;;;0.82;0.50;;;23.00;54.10;;;;;;4972651;28;20209;-58
2023/04/18 05:12:11;;;;;;;0.88;0.50;;;23.00;54.10;;;;;;4972318;28;20198;-58
2023/04/18 05:14:42;;;;;;;0.95;0.50;;;23.00;54.10;;;;;;4972161;28;20218;-58
2023/04/18 05:17:13;;;;;;;0.88;0.50;;;23.00;54.10;;;;;;5008869;28;20653;-58
2023/04/18 05:19:44;;;;;;;0.40;0.40;;;23.00;54.20;;;;;;5011483;28;20203;-58
2023/04/18 05:22:14;;;;;;;0.32;0.32;;;23.00;54.20;;;;;;5011593;28;20737;-58
2023/04/18 05:24:45;;;;;;;0.55;0.52;;;23.00;54.20;;;;;;5011339;28;20213;-58
2023/04/18 05:27:18;;;;;;;0.57;0.50;;;23.00;54.20;;;;;;5011409;28;20276;-59
2023/04/18 05:29:49;;;;;;;1.38;0.40;;;23.00;54.30;;;;;;5011489;28;20200;-59
2023/04/18 05:32:20;;;;;;;0.73;0.47;;;23.00;54.30;;;;;;5011537;28;20197;-59
2023/04/18 05:34:50;;;;;;;0.77;0.50;;;23.00;54.30;;;;;;4999994;28;20593;-58
2023/04/18 05:37:21;;;;;;;0.63;0.60;;;23.00;54.30;;;;;;4992020;28;20231;-58
2023/04/18 05:39:52;;;;;;;1.23;0.60;;;23.00;54.30;;;;;;4993528;28;20597;-58
2023/04/18 05:42:24;;;;;;;0.95;0.70;;;23.00;54.30;;;;;;4995315;28;20670;-58
2023/04/18 05:44:55;;;;;;;1.48;0.70;;;23.00;54.30;;;;;;4994543;28;20574;-58
2023/04/18 05:47:27;;;;;;;1.67;0.60;;;23.00;54.40;;;;;;5013947;28;20204;-58
2023/04/18 05:49:58;;;;;;;0.60;0.60;;;23.00;54.40;;;;;;5007563;28;20238;-59
2023/04/18 05:52:28;;;;;;;1.00;0.50;;;23.00;54.40;;;;;;4994057;28;20205;-52
2023/04/18 05:54:59;;;;;;;1.38;1.10;;;22.90;54.40;;;;;;4994900;28;20678;-51
2023/04/18 05:57:32;;;;;;;5.25;1.10;;;22.90;54.60;;;;;;4994914;28;20193;-56
2023/04/18 06:00:04;;;;;;;3.45;1.27;;;22.90;54.70;;;;;;4994675;28;20190;-58
2023/04/18 06:02:35;;;;;;;2.47;1.55;;;22.90;54.80;;;;;;4993541;28;20301;-57
2023/04/18 06:05:06;;;;;;;3.65;1.70;;;23.00;54.90;;;;;;4994508;28;20591;-57
2023/04/18 06:07:37;;;;;;;2.65;1.90;;;23.00;54.90;;;;;;4994470;28;20208;-58
2023/04/18 06:10:12;;;;;;;2.00;1.60;;;23.00;55.00;;;;;;4994672;28;20200;-58
2023/04/18 06:12:44;;;;;;;3.10;1.70;;;23.00;55.10;;;;;;4994346;28;20732;-58
2023/04/18 06:15:15;;;;;;;2.70;1.85;;;22.90;55.00;;;;;;4994048;28;20686;-58
2023/04/18 06:17:45;;;;;;;3.83;2.10;;;22.90;55.00;;;;;;5014531;28;20201;-57
2023/04/18 06:20:16;;;;;;;2.55;2.13;;;23.00;55.10;;;;;;5005740;28;20190;-58
2023/04/18 06:22:47;;;;;;;2.05;1.70;;;22.90;55.00;;;;;;4993891;28;20563;-58
2023/04/18 06:25:17;;;;;;;2.60;1.90;;;22.90;55.10;;;;;;4995904;28;20194;-58
2023/04/18 06:27:50;;;;;;;2.70;1.90;;;22.90;55.10;;;;;;4994578;28;20567;-58
2023/04/18 06:30:21;;;;;;;4.60;1.90;;;22.90;55.10;;;;;;4993147;28;20602;-56
2023/04/18 06:32:51;;;;;;;3.58;2.05;;;22.90;55.10;;;;;;4994651;28;20288;-59
2023/04/18 06:35:22;;;;;;;2.72;1.63;;;22.90;55.10;;;;;;4994057;28;20612;-59
2023/04/18 06:37:53;;;;;;;2.03;1.80;;;22.90;55.10;;;;;;4994210;28;20201;-59
2023/04/18 06:40:23;;;;;;;1.75;1.65;;;22.90;55.20;;;;;;4994141;28;20682;-59
2023/04/18 06:42:56;;;;;;;4.88;2.03;;;22.90;55.10;;;;;;4994243;28;20709;-58
2023/04/18 06:45:26;;;;;;;2.67;1.80;;;22.80;55.10;;;;;;4997120;28;20284;-59
2023/04/18 06:47:58;;;;;;;1.90;1.50;;;22.90;55.10;;;;;;5012701;28;20203;-59
2023/04/18 06:50:29;;;;;;;2.92;1.75;;;22.80;55.10;;;;;;5005831;28;20193;-59
2023/04/18 06:52:59;;;;;;;3.90;1.80;;;22.80;55.10;;;;;;4990970;28;20221;-59
2023/04/18 06:55:30;;;;;;;1.95;1.70;;;22.90;55.10;;;;;;4992093;28;20621;-59
2023/04/18 06:58:04;;;;;;;2.45;1.50;;;22.80;55.10;;;;;;4992819;28;20205;-59
2023/04/18 07:00:35;;;;;;;2.35;1.80;;;22.80;55.10;;;;;;4994107;28;20637;-59
2023/04/18 07:03:08;;;;;;;2.83;1.65;;;22.80;55.10;;;;;;4978701;28;20331;-59
2023/04/18 07:05:39;;;;;;;2.78;1.90;;;22.80;55.10;;;;;;4982593;28;20219;-59
2023/04/18 07:08:10;;;;;;;1.98;1.60;;;22.80;55.10;;;;;;4992872;28;20205;-59
2023/04/18 07:10:40;;;;;;;2.35;1.80;;;22.70;55.10;;;;;;4992760;28;20197;-59
2023/04/18 07:13:14;;;;;;;2.17;1.83;;;22.70;55.10;;;;;;4993482;28;20225;-59
2023/04/18 07:15:44;;;;;;;2.65;1.92;;;22.70;55.10;;;;;;5000307;28;20228;-58
2023/04/18 07:18:15;;;;;;;2.17;1.60;;;22.70;55.00;;;;;;5013996;28;20197;-58
2023/04/18 07:20:45;;;;;;;3.00;1.90;;;22.70;55.10;;;;;;5013241;28;20200;-58
2023/04/18 07:23:16;;;;;;;2.00;1.58;;;22.70;55.10;;;;;;5012645;28;20216;-58
2023/04/18 07:25:48;;;;;;;1.90;1.60;;;22.70;55.70;;;;;;5013072;28;20200;-57
2023/04/18 07:28:20;;;;;;;2.25;1.50;;;22.70;55.10;;;;;;5013329;28;20239;-58
2023/04/18 07:30:51;;;;;;;2.70;1.63;;;22.60;55.10;;;;;;5013224;28;20193;-58
2023/04/18 07:33:22;;;;;;;2.42;1.70;;;22.70;55.20;;;;;;4997186;28;20225;-59
2023/04/18 07:35:53;;;;;;;2.47;1.27;;;22.60;55.10;;;;;;4992947;28;20708;-58
2023/04/18 07:38:24;;;;;;;1.45;1.35;;;22.60;55.10;;;;;;4992783;28;20566;-58
2023/04/18 07:41:00;;;;;;;5.07;1.55;;;22.60;55.10;;;;;;4992949;28;20273;-58
2023/04/18 07:43:32;;;;;;;2.05;1.60;;;22.60;55.10;;;;;;4992987;28;20396;-58
2023/04/18 07:46:03;;;;;;;2.05;1.55;;;22.60;55.10;;;;;;5002069;28;20660;-58
2023/04/18 07:48:33;;;;;;;1.65;1.50;;;22.60;55.10;;;;;;5012850;28;20205;-58
2023/04/18 07:51:07;;;;;;;2.25;1.52;;;22.60;55.10;;;;;;5013163;28;20570;-57
2023/04/18 07:53:39;;;;;;;2.15;1.73;;;22.60;55.20;;;;;;5011700;28;20238;-58
2023/04/18 07:56:11;;;;;;;2.47;1.50;;;22.50;55.10;;;;;;5012380;28;20220;-58
2023/04/18 07:58:43;;;;;;;1.65;1.55;;;22.50;55.10;;;;;;5012389;28;20211;-58
2023/04/18 08:01:17;;;;;;;2.22;1.63;;;22.50;55.10;;;;;;5011946;28;20205;-59
2023/04/18 08:03:48;;;;;;;1.75;1.65;;;22.50;55.10;;;;;;5012204;28;20217;-58
2023/04/18 08:06:19;;;;;;;2.55;1.45;;;22.50;55.20;;;;;;5012212;28;20201;-58
2023/04/18 08:08:49;;;;;;;2.55;1.50;;;22.50;55.20;;;;;;5011818;28;20200;-58
2023/04/18 08:11:20;;;;;;;2.65;1.67;;;22.50;55.20;;;;;;5012185;28;20263;-59
2023/04/18 08:13:53;;;;;;;2.38;1.65;;;22.50;55.20;;;;;;5012233;28;20220;-58
2023/04/18 08:16:26;;;;;;;2.03;1.70;;;22.50;55.30;;;;;;5012824;28;20236;-56
2023/04/18 08:18:57;;;;;;;2.00;1.70;;;22.50;55.20;;;;;;4988229;28;20205;-58
2023/04/18 08:21:28;;;;;;;2.95;1.77;;;22.50;55.20;;;;;;4972954;28;20206;-59
2023/04/18 08:23:58;;;;;;;2.72;1.80;;;22.50;55.20;;;;;;4972366;28;21491;-58
2023/04/18 08:26:29;;;;;;;2.97;1.55;;;22.40;55.20;;;;;;4973354;28;20673;-59
2023/04/18 08:29:02;;;;;;;2.22;1.50;;;22.50;55.20;;;;;;4973382;28;20249;-58
2023/04/18 08:31:32;;;;;;;1.73;1.42;;;22.40;55.20;;;;;;4973402;28;20198;-59
2023/04/18 08:34:03;;;;;;;2.28;1.70;;;22.40;55.30;;;;;;4973047;28;20218;-59
2023/04/18 08:36:34;;;;;;;2.20;1.60;;;22.40;55.30;;;;;;4973180;28;20225;-59
2023/04/18 08:39:05;;;;;;;1.77;1.33;;;22.40;55.30;;;;;;4972607;28;20229;-59
2023/04/18 08:41:39;;;;;;;1.52;1.40;;;22.40;55.30;;;;;;4972997;28;20198;-59
2023/04/18 08:44:11;;;;;;;2.63;1.73;;;22.40;55.30;;;;;;4972737;28;20221;-55
2023/04/18 08:46:42;;;;;;;1.77;1.65;;;22.40;55.30;;;;;;5003523;28;20235;-56
2023/04/18 08:49:13;;;;;;;1.55;1.45;;;22.40;55.30;;;;;;5011494;28;20297;-57
2023/04/18 08:51:46;;;;;;;2.03;1.63;;;22.40;55.40;;;;;;5012024;28;20279;-57
2023/04/18 08:54:17;;;;;;;2.08;1.38;;;22.40;55.40;;;;;;5011625;28;20220;-56
2023/04/18 08:56:48;;;;;;;3.42;1.75;;;22.40;55.40;;;;;;5003102;28;20239;-57
2023/04/18 08:59:20;;;;;;;2.42;1.88;;;22.30;55.40;;;;;;4984196;28;20610;-57
2023/04/18 09:02:00;;;;;;;2.47;1.52;;;22.40;55.50;;;;;;4980791;28;20658;-57
2023/04/18 09:04:38;;;;;;;1.88;1.55;;;22.40;55.50;;;;;;4981440;28;20241;-57
2023/04/18 09:07:10;;;;;;;3.70;1.80;;;22.30;55.50;;;;;;4981392;28;20194;-55
2023/04/18 09:09:45;;;;;;;1.70;1.60;;;22.30;55.50;;;;;;4972521;28;20198;-57
2023/04/18 09:12:17;;;;;;;2.80;1.80;;;22.30;55.50;;;;;;4991731;28;20678;-57
2023/04/18 09:14:50;;;;;;;2.25;1.80;;;22.30;55.50;;;;;;4989976;28;20299;-56
2023/04/18 09:17:35;;;;;;;2.35;1.55;;;22.30;55.50;;;;;;4993775;28;20284;-55
2023/04/18 09:20:09;;;;;;;2.70;1.50;;;22.30;55.60;;;;;;4989948;28;20681;-57
2023/04/18 09:22:49;;;;;;;2.67;1.70;;;22.30;55.60;;;;;;4989946;28;20652;-57
2023/04/18 09:25:33;;;;;;;2.33;1.85;;;22.30;55.60;;;;;;4989927;28;20200;-57
2023/04/18 09:28:04;;;;;;;5.03;1.92;;;22.30;55.70;;;;;;4989679;28;20247;-58
2023/04/18 09:30:38;;;;;;;2.55;1.73;;;22.20;55.60;;;;;;4990375;28;20190;-57
2023/04/18 09:33:10;;;;;;;2.20;1.55;;;22.30;55.70;;;;;;4990100;28;20224;-57
2023/04/18 09:35:41;;;;;;;3.25;1.77;;;22.20;55.60;;;;;;4990164;28;20656;-56
2023/04/18 09:38:12;;;;;;;1.60;1.33;;;22.20;55.70;;;;;;4990785;28;20267;-56
2023/04/18 09:40:42;;;;;;;2.08;1.70;;;22.20;55.60;;;;;;4989759;28;20861;-53
2023/04/18 09:43:22;;;;;;;2.30;1.60;;;22.20;55.70;;;;;;4990190;28;20217;-53
2023/04/18 09:45:55;;;;;;;2.97;1.42;;;22.20;55.60;;;;;;4997129;28;20598;-51
2023/04/18 09:48:26;;;;;;;1.65;1.48;;;22.20;55.70;;;;;;5010239;28;20205;-52
2023/04/18 09:50:58;;;;;;;3.45;1.80;;;22.20;55.70;;;;;;4996424;28;20204;-53
2023/04/18 09:53:29;;;;;;;2.00;1.52;;;22.20;55.60;;;;;;4989975;28;20226;-52
2023/04/18 09:56:00;;;;;;;3.22;1.40;;;22.20;55.70;;;;;;4989718;28;20212;-54
2023/04/18 09:58:33;;;;;;;2.20;1.55;;;22.20;55.70;;;;;;4970569;28;20202;-52
2023/04/18 10:01:07;;;;;;;3.05;1.60;;;22.20;55.70;;;;;;4982795;28;20225;-55
2023/04/18 10:03:46;;;;;;;2.65;1.83;;;22.10;55.70;;;;;;4990282;28;20225;-54
2023/04/18 10:06:19;;;;;;;2.40;1.65;;;22.10;55.70;;;;;;4989559;28;20205;-56
2023/04/18 10:08:53;;;;;;;3.10;1.58;;;22.10;55.70;;;;;;4991110;28;20194;-50
2023/04/18 10:11:24;;;;;;;2.80;1.58;;;22.10;55.70;;;;;;4994880;28;20200;-49
2023/04/18 10:13:58;;;;;;;2.50;1.90;;;22.10;55.70;;;;;;4988950;28;20347;-50
2023/04/18 10:16:35;;;;;;;1.67;1.30;;;22.10;55.80;;;;;;4998582;28;20290;-53
2023/04/18 10:19:23;;;;;;;1.73;1.33;;;22.10;55.70;;;;;;5009842;28;20196;-54
2023/04/18 10:21:59;;;;;;;1.98;1.52;;;22.10;55.80;;;;;;4991395;28;20244;-53
2023/04/18 10:24:51;;;;;;;1.83;1.50;;;22.10;55.70;;;;;;4990019;28;20224;-50
2023/04/18 10:28:02;;;;;;;2.38;1.55;;;22.10;55.80;;;;;;4993542;28;20232;-55
2023/04/18 10:30:52;;;;;;;1.98;1.50;;;22.10;55.70;;;;;;4989131;28;20196;-55
2023/04/18 10:33:31;;;;;;;2.00;1.60;;;22.10;55.70;;;;;;4993848;28;20249;-54
2023/04/18 10:36:16;;;;;;;1.80;1.50;;;22.10;55.80;;;;;;4992478;28;20193;-52
2023/04/18 10:38:51;;;;;;;2.25;1.48;;;22.00;55.80;;;;;;4993513;28;20288;-53
2023/04/18 10:41:28;;;;;;;1.92;1.60;;;22.00;55.70;;;;;;4992780;28;20189;-54
2023/04/18 10:44:21;;;;;;;3.17;1.58;;;22.00;55.80;;;;;;4993772;28;20228;-53
2023/04/18 10:47:22;;;;;;;2.15;1.55;;;22.00;55.80;;;;;;5008136;28;20263;-51
2023/04/18 10:50:03;;;;;;;2.40;1.30;;;22.00;55.80;;;;;;5013333;28;20283;-55
2023/04/18 10:52:34;;;;;;;1.40;1.30;;;22.00;55.80;;;;;;4993061;28;20259;-54
2023/04/18 10:55:18;;;;;;;2.00;1.50;;;22.00;55.90;;;;;;4993000;28;20197;-55
2023/04/18 10:57:54;;;;;;;1.70;1.25;;;22.00;55.90;;;;;;4993213;28;20308;-54
2023/04/18 11:00:26;;;;;;;1.88;1.55;;;22.00;55.90;;;;;;4992732;28;20186;-54
2023/04/18 11:02:58;;;;;;;1.70;1.30;;;22.00;55.90;;;;;;4987010;28;20188;-52
2023/04/18 11:05:34;;;;;;;1.65;1.17;;;22.00;55.90;;;;;;4983695;28;20193;-54
2023/04/18 11:08:05;;;;;;;1.73;1.42;;;21.90;55.90;;;;;;4992073;28;20795;-54
2023/04/18 11:10:35;;;;;;;2.15;1.70;;;21.90;55.90;;;;;;4992856;28;20273;-50
2023/04/18 11:13:08;;;;;;;1.98;1.50;;;21.90;55.90;;;;;;4993127;28;20218;-54
2023/04/18 11:15:39;;;;;;;2.20;1.58;;;21.90;55.90;;;;;;4993893;28;20264;-54
2023/04/18 11:18:10;;;;;;;1.60;1.20;;;21.90;56.30;;;;;;4992998;28;20221;-56
2023/04/18 11:20:49;;;;;;;1.67;1.23;;;21.90;55.90;;;;;;4980546;28;20205;-52
2023/04/18 11:23:22;;;;;;;2.10;1.40;;;21.90;55.90;;;;;;4982356;28;20297;-56
2023/04/18 11:25:55;;;;;;;2.33;1.63;;;21.90;56.00;;;;;;4982618;28;20196;-54
2023/04/18 11:28:26;;;;;;;1.67;1.30;;;21.90;56.00;;;;;;4986232;28;20204;-54
2023/04/18 11:31:01;;;;;;;1.65;1.48;;;21.90;56.00;;;;;;4983527;28;20670;-56
2023/04/18 11:33:32;;;;;;;2.33;1.30;;;21.90;56.00;;;;;;4982574;28;20217;-55
2023/04/18 11:36:04;;;;;;;1.95;1.40;;;21.90;56.10;;;;;;4981351;28;20195;-55
2023/04/18 11:38:35;;;;;;;1.55;1.38;;;21.90;56.00;;;;;;4982227;28;20228;-56
2023/04/18 11:41:06;;;;;;;2.42;1.27;;;21.80;56.00;;;;;;4983481;28;20197;-54
2023/04/18 11:43:36;;;;;;;1.50;1.40;;;21.90;56.10;;;;;;4986587;28;20214;-53
2023/04/18 11:46:07;;;;;;;1.85;1.52;;;21.80;56.00;;;;;;4984184;28;20201;-54
2023/04/18 11:48:38;;;;;;;1.77;1.33;;;21.80;56.00;;;;;;4983439;28;20197;-55
2023/04/18 11:51:31;;;;;;;2.53;1.52;;;21.80;56.00;;;;;;4982138;28;20194;-57
2023/04/18 11:54:02;;;;;;;3.05;1.50;;;21.80;55.90;;;;;;4983160;28;20240;-54
2023/04/18 11:56:33;;;;;;;1.50;1.30;;;21.80;56.00;;;;;;4982191;28;20202;-56
2023/04/18 11:59:10;;;;;;;2.10;1.52;;;21.80;56.00;;;;;;4980868;28;20213;-56
2023/04/18 12:01:41;;;;;;;1.77;1.30;;;21.80;56.00;;;;;;4981372;28;20198;-54
2023/04/18 12:04:12;;;;;;;2.03;1.60;;;21.80;56.00;;;;;;4982558;28;20216;-57
2023/04/18 12:06:51;;;;;;;1.55;1.40;;;21.70;56.00;;;;;;4983364;28;20186;-58
2023/04/18 12:09:23;;;;;;;1.40;1.23;;;21.70;56.10;;;;;;4983421;28;20264;-57
2023/04/18 12:12:04;;;;;;;1.98;1.35;;;21.70;56.10;;;;;;4982189;28;20205;-57
2023/04/18 12:14:36;;;;;;;1.77;1.48;;;21.70;56.10;;;;;;4982409;28;20210;-56
2023/04/18 12:17:07;;;;;;;1.65;1.25;;;21.70;56.10;;;;;;4982850;28;20746;-55
2023/04/18 12:19:38;;;;;;;1.33;1.13;;;21.70;56.10;;;;;;4981711;28;20190;-55
2023/04/18 12:22:10;;;;;;;2.10;1.48;;;21.70;56.10;;;;;;4981528;28;20649;-56
2023/04/18 12:24:41;;;;;;;1.58;1.20;;;21.70;56.10;;;;;;4982395;28;20225;-57
2023/04/18 12:27:11;;;;;;;1.63;1.23;;;21.70;56.00;;;;;;4981971;28;20190;-53
2023/04/18 12:29:42;;;;;;;1.20;0.90;;;21.70;56.00;;;;;;4980443;28;20277;-51
2023/04/18 12:32:13;;;;;;;2.28;1.52;;;21.70;56.10;;;;;;4981329;28;20244;-57
2023/04/18 12:34:43;;;;;;;1.40;1.15;;;21.60;56.00;;;;;;4991491;28;20229;-56
2023/04/18 12:37:16;;;;;;;1.58;1.38;;;21.70;56.10;;;;;;4992370;28;20225;-50
2023/04/18 12:39:46;;;;;;;2.33;1.40;;;21.60;56.10;;;;;;4992523;28;20205;-55
2023/04/18 12:42:17;;;;;;;1.50;1.15;;;21.60;56.10;;;;;;4992511;28;20194;-53
2023/04/18 12:44:48;;;;;;;2.45;1.38;;;21.60;56.10;;;;;;4992387;28;20295;-54
2023/04/18 12:47:18;;;;;;;1.40;1.30;;;21.60;56.10;;;;;;5011203;28;20204;-55
2023/04/18 12:49:49;;;;;;;1.48;1.33;;;21.60;56.10;;;;;;5012055;28;20205;-54
2023/04/18 12:52:21;;;;;;;1.42;1.15;;;21.60;56.20;;;;;;5011729;28;20189;-55
2023/04/18 12:54:52;;;;;;;2.33;1.23;;;21.60;56.20;;;;;;5001719;28;20236;-54
2023/04/18 12:57:22;;;;;;;1.48;1.38;;;21.60;56.20;;;;;;4989728;28;20629;-57
2023/04/18 12:59:53;;;;;;;2.00;1.42;;;21.60;56.20;;;;;;4991619;28;20202;-51
2023/04/18 13:02:25;;;;;;;1.98;1.45;;;21.60;56.20;;;;;;4991419;28;20608;-53
2023/04/18 13:04:55;;;;;;;1.40;1.30;;;21.60;56.20;;;;;;4991956;28;20221;-53
2023/04/18 13:07:28;;;;;;;1.90;1.15;;;21.60;56.20;;;;;;4992146;28;20205;-52
2023/04/18 13:09:59;;;;;;;1.35;1.10;;;21.60;56.20;;;;;;4991583;28;20247;-51
2023/04/18 13:12:30;;;;;;;2.17;1.23;;;21.60;56.20;;;;;;4992083;28;20194;-53
2023/04/18 13:15:00;;;;;;;2.20;1.40;;;21.50;56.10;;;;;;4992357;28;20308;-53